地図

経路データ

SID SEASON NUMBER BASIN SUBBASIN NAME ISO_TIME NATURE LAT LON WMO_WIND WMO_PRES WMO_AGENCY TRACK_TYPE DIST2LAND LANDFALL IFLAG USA_AGENCY USA_ATCF_ID USA_LAT USA_LON USA_RECORD USA_STATUS USA_WIND USA_PRES USA_SSHS USA_R34_NE USA_R34_SE USA_R34_SW USA_R34_NW USA_R50_NE USA_R50_SE USA_R50_SW USA_R50_NW USA_R64_NE USA_R64_SE USA_R64_SW USA_R64_NW USA_POCI USA_ROCI USA_RMW USA_EYE TOKYO_LAT TOKYO_LON TOKYO_GRADE TOKYO_WIND TOKYO_PRES TOKYO_R50_DIR TOKYO_R50_LONG TOKYO_R50_SHORT TOKYO_R30_DIR TOKYO_R30_LONG TOKYO_R30_SHORT TOKYO_LAND CMA_LAT CMA_LON CMA_CAT CMA_WIND CMA_PRES HKO_LAT HKO_LON HKO_CAT HKO_WIND HKO_PRES NEWDELHI_LAT NEWDELHI_LON NEWDELHI_GRADE NEWDELHI_WIND NEWDELHI_PRES NEWDELHI_CI NEWDELHI_DP NEWDELHI_POCI REUNION_LAT REUNION_LON REUNION_TYPE REUNION_WIND REUNION_PRES REUNION_TNUM REUNION_CI REUNION_RMW REUNION_R34_NE REUNION_R34_SE REUNION_R34_SW REUNION_R34_NW REUNION_R50_NE REUNION_R50_SE REUNION_R50_SW REUNION_R50_NW REUNION_R64_NE REUNION_R64_SE REUNION_R64_SW REUNION_R64_NW BOM_LAT BOM_LON BOM_TYPE BOM_WIND BOM_PRES BOM_TNUM BOM_CI BOM_RMW BOM_R34_NE BOM_R34_SE BOM_R34_SW BOM_R34_NW BOM_R50_NE BOM_R50_SE BOM_R50_SW BOM_R50_NW BOM_R64_NE BOM_R64_SE BOM_R64_SW BOM_R64_NW BOM_ROCI BOM_POCI BOM_EYE BOM_POS_METHOD BOM_PRES_METHOD NADI_LAT NADI_LON NADI_CAT NADI_WIND NADI_PRES WELLINGTON_LAT WELLINGTON_LON WELLINGTON_WIND WELLINGTON_PRES DS824_LAT DS824_LON DS824_STAGE DS824_WIND DS824_PRES TD9636_LAT TD9636_LON TD9636_STAGE TD9636_WIND TD9636_PRES TD9635_LAT TD9635_LON TD9635_WIND TD9635_PRES TD9635_ROCI NEUMANN_LAT NEUMANN_LON NEUMANN_CLASS NEUMANN_WIND NEUMANN_PRES MLC_LAT MLC_LON MLC_CLASS MLC_WIND MLC_PRES USA_GUST BOM_GUST BOM_GUST_PER REUNION_GUST REUNION_GUST_PER USA_SEAHGT USA_SEARAD_NE USA_SEARAD_SE USA_SEARAD_SW USA_SEARAD_NW STORM_SPEED STORM_DIR
1921287N15144 1921 53 WP MM NOT_NAMED 1921-10-14 10:00:00 NR 14.6000 143.600 main 1899 1899 __________O___ -1 14.6000 143.600 4 3 44
1921287N15144 1921 53 WP MM NOT_NAMED 1921-10-14 12:00:00 NR 14.6806 143.683 main 1909 1907 __________P___ -1 14.6806 143.683 4 3 44
1921287N15144 1921 53 WP MM NOT_NAMED 1921-10-14 15:00:00 NR 14.8087 143.808 main 1918 1918 __________P___ -1 14.8087 143.808 4 4 41
1921287N15144 1921 53 WP MM NOT_NAMED 1921-10-14 18:00:00 NR 14.9556 143.933 main 1938 1936 __________P___ -1 14.9556 143.933 4 4 37
1921287N15144 1921 53 WP MM NOT_NAMED 1921-10-14 21:00:00 NR 15.1324 144.058 main 1946 1946 __________P___ -1 15.1324 144.058 4 4 34
1921287N15144 1921 53 WP MM NOT_NAMED 1921-10-14 22:00:00 NR 15.2000 144.100 main 1957 1957 __________O___ -1 15.2000 144.100 4 5 29
1921287N15144 1921 53 WP MM NOT_NAMED 1921-10-15 00:00:00 NR 15.3495 144.183 main 1967 1978 __________P___ -1 15.3495 144.183 4 5 27
1921287N15144 1921 53 WP MM NOT_NAMED 1921-10-15 03:00:00 NR 15.6053 144.308 main 1998 1998 __________P___ -1 15.6053 144.308 4 6 24
1921287N15144 1921 53 WP MM NOT_NAMED 1921-10-15 06:00:00 NR 15.8904 144.433 main 2030 2029 __________P___ -1 15.8904 144.433 4 6 22
1921287N15144 1921 53 WP MM NOT_NAMED 1921-10-15 09:00:00 NR 16.1955 144.558 main 2061 2061 __________P___ -1 16.1955 144.558 4 7 21
1921287N15144 1921 53 WP MM NOT_NAMED 1921-10-15 10:00:00 NR 16.3000 144.600 main 2072 2072 __________O___ -1 16.3000 144.600 4 7 22
1921287N15144 1921 53 WP MM NOT_NAMED 1921-10-15 12:00:00 NR 16.5131 144.694 main 2087 2061 __________P___ -1 16.5131 144.694 4 7 22
1921287N15144 1921 53 WP MM NOT_NAMED 1921-10-15 15:00:00 NR 16.8456 144.835 main 2061 2029 __________P___ -1 16.8456 144.835 4 7 21
1921287N15144 1921 53 WP MM NOT_NAMED 1921-10-15 18:00:00 NR 17.1796 144.965 main 2029 2003 __________P___ -1 17.1796 144.965 4 7 19
1921287N15144 1921 53 WP MM NOT_NAMED 1921-10-15 21:00:00 NR 17.4993 145.072 main 2003 1993 __________P___ -1 17.4993 145.072 4 7 17
1921287N15144 1921 53 WP MM NOT_NAMED 1921-10-15 22:00:00 NR 17.6000 145.100 main 1993 1973 __________O___ -1 17.6000 145.100 4 6 14
1921287N15144 1921 53 WP MM NOT_NAMED 1921-10-16 00:00:00 NR 17.7838 145.148 main 1973 1958 __________P___ -1 17.7838 145.148 4 5 11
1921287N15144 1921 53 WP MM NOT_NAMED 1921-10-16 03:00:00 NR 18.0405 145.194 main 1958 1926 __________P___ -1 18.0405 145.194 4 5 6
1921287N15144 1921 53 WP MM NOT_NAMED 1921-10-16 06:00:00 NR 18.2829 145.212 main 1926 1904 __________P___ -1 18.2829 145.212 4 5 0
1921287N15144 1921 53 WP MM NOT_NAMED 1921-10-16 09:00:00 NR 18.5203 145.207 main 1904 1893 __________P___ -1 18.5203 145.207 4 5 0
1921287N15144 1921 53 WP MM NOT_NAMED 1921-10-16 10:00:00 NR 18.6000 145.200 main 1893 1872 __________O___ -1 18.6000 145.200 4 5 355
1921287N15144 1921 53 WP MM NOT_NAMED 1921-10-16 12:00:00 NR 18.7536 145.186 main 1872 1847 __________P___ -1 18.7536 145.186 4 5 352
1921287N15144 1921 53 WP MM NOT_NAMED 1921-10-16 15:00:00 NR 18.9836 145.147 main 1847 1826 __________P___ -1 18.9836 145.147 4 5 350
1921287N15144 1921 53 WP MM NOT_NAMED 1921-10-16 18:00:00 NR 19.2272 145.091 main 1826 1791 __________P___ -1 19.2272 145.091 4 5 347
1921287N15144 1921 53 WP MM NOT_NAMED 1921-10-16 21:00:00 NR 19.4999 145.024 main 1791 1780 __________P___ -1 19.4999 145.024 4 6 346
1921287N15144 1921 53 WP MM NOT_NAMED 1921-10-16 22:00:00 NR 19.6000 145.000 main 1780 1756 __________O___ -1 19.6000 145.000 4 7 349
1921287N15144 1921 53 WP MM NOT_NAMED 1921-10-17 00:00:00 NR 19.8267 144.948 main 1756 1712 __________P___ -1 19.8267 144.948 4 7 348
1921287N15144 1921 53 WP MM NOT_NAMED 1921-10-17 03:00:00 NR 20.1985 144.863 main 1712 1667 __________P___ -1 20.1985 144.863 4 8 349
1921287N15144 1921 53 WP MM NOT_NAMED 1921-10-17 06:00:00 NR 20.5887 144.782 main 1667 1621 __________P___ -1 20.5887 144.782 4 8 350
1921287N15144 1921 53 WP MM NOT_NAMED 1921-10-17 09:00:00 NR 20.9756 144.716 main 1621 1610 __________P___ -1 20.9756 144.716 4 8 351
1921287N15144 1921 53 WP MM NOT_NAMED 1921-10-17 10:00:00 NR 21.1000 144.700 main 1610 1588 __________O___ -1 21.1000 144.700 4 7 352
1921287N15144 1921 53 WP MM NOT_NAMED 1921-10-17 12:00:00 NR 21.3307 144.683 main 1588 1545 __________P___ -1 21.3307 144.683 4 7 0
1921287N15144 1921 53 WP MM NOT_NAMED 1921-10-17 15:00:00 NR 21.6642 144.676 main 1545 1513 __________P___ -1 21.6642 144.676 4 7 1
1921287N15144 1921 53 WP MM NOT_NAMED 1921-10-17 18:00:00 NR 21.9854 144.683 main 1513 1481 __________P___ -1 21.9854 144.683 4 6 0
1921287N15144 1921 53 WP MM NOT_NAMED 1921-10-17 21:00:00 NR 22.2975 144.696 main 1481 1471 __________P___ -1 22.2975 144.696 4 6 2
1921287N15144 1921 53 WP MM NOT_NAMED 1921-10-17 22:00:00 NR 22.4000 144.700 main 1471 1449 __________O___ -1 22.4000 144.700 4 6 356
1921287N15144 1921 53 WP MM NOT_NAMED 1921-10-18 00:00:00 NR 22.6031 144.695 main 1449 1417 __________P___ -1 22.6031 144.695 4 6 357
1921287N15144 1921 53 WP MM NOT_NAMED 1921-10-18 03:00:00 NR 22.9013 144.687 main 1417 1386 __________P___ -1 22.9013 144.687 4 6 358
1921287N15144 1921 53 WP MM NOT_NAMED 1921-10-18 06:00:00 NR 23.1975 144.684 main 1386 1354 __________P___ -1 23.1975 144.684 4 6 0
1921287N15144 1921 53 WP MM NOT_NAMED 1921-10-18 09:00:00 NR 23.4979 144.693 main 1354 1343 __________P___ -1 23.4979 144.693 4 6 0
1921287N15144 1921 53 WP MM NOT_NAMED 1921-10-18 10:00:00 NR 23.6000 144.700 main 1343 1322 __________O___ -1 23.6000 144.700 4 6 5
1921287N15144 1921 53 WP MM NOT_NAMED 1921-10-18 12:00:00 NR 23.8082 144.720 main 1322 1294 __________P___ -1 23.8082 144.720 4 6 6
1921287N15144 1921 53 WP MM NOT_NAMED 1921-10-18 15:00:00 NR 24.1289 144.762 main 1294 1252 __________P___ -1 24.1289 144.762 4 7 8
1921287N15144 1921 53 WP MM NOT_NAMED 1921-10-18 18:00:00 NR 24.4568 144.817 main 1252 1225 __________P___ -1 24.4568 144.817 4 7 9
1921287N15144 1921 53 WP MM NOT_NAMED 1921-10-18 21:00:00 NR 24.7889 144.879 main 1225 1214 __________P___ -1 24.7889 144.879 4 7 10
1921287N15144 1921 53 WP MM NOT_NAMED 1921-10-18 22:00:00 NR 24.9000 144.900 main 1214 __________O___ -1 24.9000 144.900 7 7 7

デジタル台風データ・検索

IBTrACS Databaseについて

本データベースは、米国NOAAが公開する1842年以降の世界の熱帯低気圧のベストトラックデータアーカイブInternational Best Track Archive for Climate Stewardship (IBTrACS)を、ウェブで閲覧しやすい形式に変換したものです。

最終更新日:2021-12-06